sensor_id;sensor_type;location;lat;lon;timestamp;pressure;altitude;pressure_sealevel;temperature;humidity
75775;BME280;64505;51.458;7.556;2022-12-07T00:01:46;99783.63;;;3.84;93.70
75775;BME280;64505;51.458;7.556;2022-12-07T00:03:49;99782.03;;;3.83;93.81
75775;BME280;64505;51.458;7.556;2022-12-07T00:05:51;99781.66;;;3.86;93.61
75775;BME280;64505;51.458;7.556;2022-12-07T00:07:52;99787.06;;;3.85;93.46
75775;BME280;64505;51.458;7.556;2022-12-07T00:09:53;99784.09;;;3.88;93.57
75775;BME280;64505;51.458;7.556;2022-12-07T00:11:55;99788.34;;;3.89;93.20
75775;BME280;64505;51.458;7.556;2022-12-07T00:13:59;99783.72;;;3.91;93.43
75775;BME280;64505;51.458;7.556;2022-12-07T00:16:06;99787.81;;;3.93;93.27
75775;BME280;64505;51.458;7.556;2022-12-07T00:18:08;99780.78;;;3.94;92.92
75775;BME280;64505;51.458;7.556;2022-12-07T00:20:10;99781.13;;;3.91;93.10
75775;BME280;64505;51.458;7.556;2022-12-07T00:22:11;99783.56;;;3.92;93.38
75775;BME280;64505;51.458;7.556;2022-12-07T00:24:12;99781.94;;;3.91;93.42
75775;BME280;64505;51.458;7.556;2022-12-07T00:26:25;99779.16;;;3.93;93.34
75775;BME280;64505;51.458;7.556;2022-12-07T00:28:27;99782.75;;;3.92;93.18
75775;BME280;64505;51.458;7.556;2022-12-07T00:30:28;99778.16;;;3.94;93.71
75775;BME280;64505;51.458;7.556;2022-12-07T00:32:29;99775.56;;;3.94;93.28
75775;BME280;64505;51.458;7.556;2022-12-07T00:34:31;99778.16;;;3.94;92.90
75775;BME280;64505;51.458;7.556;2022-12-07T00:36:32;99768.50;;;3.94;93.01
75775;BME280;64505;51.458;7.556;2022-12-07T00:38:35;99781.41;;;3.96;93.38
75775;BME280;64505;51.458;7.556;2022-12-07T00:40:37;99777.97;;;3.95;93.17
75775;BME280;64505;51.458;7.556;2022-12-07T00:42:38;99768.31;;;3.96;93.39
75775;BME280;64505;51.458;7.556;2022-12-07T00:44:40;99775.19;;;3.97;93.14
75775;BME280;64505;51.458;7.556;2022-12-07T00:46:42;99770.13;;;3.95;93.40
75775;BME280;64505;51.458;7.556;2022-12-07T00:48:43;99770.78;;;3.97;93.13
75775;BME280;64505;51.458;7.556;2022-12-07T00:50:45;99773.38;;;3.97;93.37
75775;BME280;64505;51.458;7.556;2022-12-07T00:52:46;99768.94;;;3.98;93.36
75775;BME280;64505;51.458;7.556;2022-12-07T00:54:47;99761.09;;;3.98;93.53
75775;BME280;64505;51.458;7.556;2022-12-07T00:56:49;99767.78;;;4.01;93.00
75775;BME280;64505;51.458;7.556;2022-12-07T00:58:55;99763.72;;;3.98;93.27
75775;BME280;64505;51.458;7.556;2022-12-07T01:01:03;99757.34;;;4.01;93.31
75775;BME280;64505;51.458;7.556;2022-12-07T01:03:06;99758.94;;;4.02;92.88
75775;BME280;64505;51.458;7.556;2022-12-07T01:05:08;99752.09;;;4.01;93.33
75775;BME280;64505;51.458;7.556;2022-12-07T01:07:09;99752.09;;;4.01;92.88
75775;BME280;64505;51.458;7.556;2022-12-07T01:09:11;99753.69;;;4.02;93.01
75775;BME280;64505;51.458;7.556;2022-12-07T01:11:15;99760.94;;;4.00;93.32
75775;BME280;64505;51.458;7.556;2022-12-07T01:13:17;99751.72;;;4.04;93.27
75775;BME280;64505;51.458;7.556;2022-12-07T01:15:18;99759.59;;;4.04;93.28
75775;BME280;64505;51.458;7.556;2022-12-07T01:17:20;99756.31;;;4.02;93.01
75775;BME280;64505;51.458;7.556;2022-12-07T01:19:21;99750.31;;;4.01;93.31
75775;BME280;64505;51.458;7.556;2022-12-07T01:21:25;99759.59;;;4.04;92.83
75775;BME280;64505;51.458;7.556;2022-12-07T01:23:28;99755.97;;;4.05;93.26
75775;BME280;64505;51.458;7.556;2022-12-07T01:25:29;99759.41;;;4.05;93.11
75775;BME280;64505;51.458;7.556;2022-12-07T01:27:32;99756.81;;;4.05;92.71
75775;BME280;64505;51.458;7.556;2022-12-07T01:29:34;99758.25;;;4.08;93.26
75775;BME280;64505;51.458;7.556;2022-12-07T01:31:35;99752.56;;;4.04;93.05
75775;BME280;64505;51.458;7.556;2022-12-07T01:33:38;99747.13;;;4.06;93.28
75775;BME280;64505;51.458;7.556;2022-12-07T01:35:39;99750.75;;;4.05;93.00
75775;BME280;64505;51.458;7.556;2022-12-07T01:37:41;99745.97;;;4.08;93.28
75775;BME280;64505;51.458;7.556;2022-12-07T01:39:42;99752.03;;;4.09;92.77
75775;BME280;64505;51.458;7.556;2022-12-07T01:41:44;99749.94;;;4.04;93.00
75775;BME280;64505;51.458;7.556;2022-12-07T01:46:11;99755.78;;;4.06;93.01
75775;BME280;64505;51.458;7.556;2022-12-07T01:48:15;99761.66;;;4.08;93.05
75775;BME280;64505;51.458;7.556;2022-12-07T01:50:18;99749.94;;;4.04;93.25
75775;BME280;64505;51.458;7.556;2022-12-07T01:54:22;99754.63;;;4.09;93.33
75775;BME280;64505;51.458;7.556;2022-12-07T01:56:25;99756.25;;;4.10;92.83
75775;BME280;64505;51.458;7.556;2022-12-07T01:58:28;99758.84;;;4.10;92.78
75775;BME280;64505;51.458;7.556;2022-12-07T02:00:30;99759.69;;;4.10;92.75
75775;BME280;64505;51.458;7.556;2022-12-07T02:02:38;99755.63;;;4.08;92.89
75775;BME280;64505;51.458;7.556;2022-12-07T02:04:40;99752.81;;;4.09;93.20
75775;BME280;64505;51.458;7.556;2022-12-07T02:06:42;99753.47;;;4.11;92.98
75775;BME280;64505;51.458;7.556;2022-12-07T02:08:46;99751.81;;;4.10;92.90
75775;BME280;64505;51.458;7.556;2022-12-07T02:10:48;99752.63;;;4.11;93.05
75775;BME280;64505;51.458;7.556;2022-12-07T02:12:54;99750.03;;;4.11;93.14
75775;BME280;64505;51.458;7.556;2022-12-07T02:14:57;99747.41;;;4.11;92.78
75775;BME280;64505;51.458;7.556;2022-12-07T02:19:47;99737.94;;;4.10;92.93
75775;BME280;64505;51.458;7.556;2022-12-07T02:24:48;99742.72;;;4.06;92.98
75775;BME280;64505;51.458;7.556;2022-12-07T02:31:11;99746.78;;;4.09;93.12
75775;BME280;64505;51.458;7.556;2022-12-07T02:33:18;99739.72;;;4.09;93.10
75775;BME280;64505;51.458;7.556;2022-12-07T02:35:33;99748.22;;;4.11;93.05
75775;BME280;64505;51.458;7.556;2022-12-07T02:40:21;99743.97;;;4.10;92.98
75775;BME280;64505;51.458;7.556;2022-12-07T02:42:34;99753.81;;;4.08;92.87
75775;BME280;64505;51.458;7.556;2022-12-07T02:44:37;99757.25;;;4.09;92.78
75775;BME280;64505;51.458;7.556;2022-12-07T02:46:44;99742.16;;;4.11;92.78
75775;BME280;64505;51.458;7.556;2022-12-07T02:48:49;99746.59;;;4.10;92.59
75775;BME280;64505;51.458;7.556;2022-12-07T02:50:52;99753.63;;;4.10;92.49
75775;BME280;64505;51.458;7.556;2022-12-07T02:52:54;99745.97;;;4.08;92.49
75775;BME280;64505;51.458;7.556;2022-12-07T02:54:55;99746.34;;;4.05;92.54
75775;BME280;64505;51.458;7.556;2022-12-07T02:57:13;99748.38;;;4.10;92.52
75775;BME280;64505;51.458;7.556;2022-12-07T03:02:22;99742.53;;;4.08;92.24
75775;BME280;64505;51.458;7.556;2022-12-07T03:04:36;99740.75;;;4.08;92.54
75775;BME280;64505;51.458;7.556;2022-12-07T03:06:47;99740.75;;;4.08;92.40
75775;BME280;64505;51.458;7.556;2022-12-07T03:11:09;99747.13;;;4.06;92.66
75775;BME280;64505;51.458;7.556;2022-12-07T03:20:00;99737.66;;;4.05;92.65
75775;BME280;64505;51.458;7.556;2022-12-07T03:22:06;99739.28;;;4.06;92.36
75775;BME280;64505;51.458;7.556;2022-12-07T03:24:12;99739.63;;;4.03;92.19
75775;BME280;64505;51.458;7.556;2022-12-07T03:26:17;99740.63;;;4.02;92.23
75775;BME280;64505;51.458;7.556;2022-12-07T03:28:22;99741.44;;;4.02;92.39
75775;BME280;64505;51.458;7.556;2022-12-07T03:30:47;99748.94;;;4.05;92.38
75775;BME280;64505;51.458;7.556;2022-12-07T03:32:59;99735.22;;;4.03;92.23
75775;BME280;64505;51.458;7.556;2022-12-07T03:35:12;99732.97;;;4.00;92.49
75775;BME280;64505;51.458;7.556;2022-12-07T03:37:40;99736.19;;;4.02;92.19
75775;BME280;64505;51.458;7.556;2022-12-07T03:39:57;99737.03;;;4.03;91.87
75775;BME280;64505;51.458;7.556;2022-12-07T03:42:03;99739.00;;;4.01;92.51
75775;BME280;64505;51.458;7.556;2022-12-07T03:44:07;99734.41;;;4.03;92.39
75775;BME280;64505;51.458;7.556;2022-12-07T03:46:25;99728.56;;;4.01;92.41
75775;BME280;64505;51.458;7.556;2022-12-07T03:50:54;99738.56;;;3.97;92.31
75775;BME280;64505;51.458;7.556;2022-12-07T03:53:05;99739.00;;;4.01;91.90
75775;BME280;64505;51.458;7.556;2022-12-07T03:55:26;99740.38;;;3.96;92.01
75775;BME280;64505;51.458;7.556;2022-12-07T03:57:30;99740.16;;;3.98;91.80
75775;BME280;64505;51.458;7.556;2022-12-07T03:59:33;99739.72;;;3.94;91.87
75775;BME280;64505;51.458;7.556;2022-12-07T04:01:35;99735.94;;;3.97;92.07
75775;BME280;64505;51.458;7.556;2022-12-07T04:03:36;99742.63;;;4.00;91.95
75775;BME280;64505;51.458;7.556;2022-12-07T04:05:38;99729.25;;;3.94;92.08
75775;BME280;64505;51.458;7.556;2022-12-07T04:07:41;99740.53;;;3.95;91.91
75775;BME280;64505;51.458;7.556;2022-12-07T04:09:42;99741.72;;;3.92;91.81
75775;BME280;64505;51.458;7.556;2022-12-07T04:11:44;99739.09;;;3.92;91.88
75775;BME280;64505;51.458;7.556;2022-12-07T04:13:45;99737.81;;;3.88;91.94
75775;BME280;64505;51.458;7.556;2022-12-07T04:16:05;99740.81;;;3.85;91.69
75775;BME280;64505;51.458;7.556;2022-12-07T04:18:07;99736.56;;;3.84;91.73
75775;BME280;64505;51.458;7.556;2022-12-07T04:20:09;99733.22;;;3.76;91.65
75775;BME280;64505;51.458;7.556;2022-12-07T04:22:11;99735.72;;;3.84;91.74
75775;BME280;64505;51.458;7.556;2022-12-07T04:24:14;99732.66;;;3.80;91.80
75775;BME280;64505;51.458;7.556;2022-12-07T04:26:18;99738.09;;;3.79;91.86
75775;BME280;64505;51.458;7.556;2022-12-07T04:28:19;99732.56;;;3.74;91.47
75775;BME280;64505;51.458;7.556;2022-12-07T04:30:21;99735.38;;;3.72;92.14
75775;BME280;64505;51.458;7.556;2022-12-07T04:32:23;99734.19;;;3.75;91.30
75775;BME280;64505;51.458;7.556;2022-12-07T04:34:24;99729.13;;;3.73;91.71
75775;BME280;64505;51.458;7.556;2022-12-07T04:36:26;99725.19;;;3.77;91.59
75775;BME280;64505;51.458;7.556;2022-12-07T04:38:27;99733.75;;;3.71;91.55
75775;BME280;64505;51.458;7.556;2022-12-07T04:40:29;99737.53;;;3.69;91.71
75775;BME280;64505;51.458;7.556;2022-12-07T04:42:30;99725.97;;;3.63;91.82
75775;BME280;64505;51.458;7.556;2022-12-07T04:44:32;99738.69;;;3.66;91.78
75775;BME280;64505;51.458;7.556;2022-12-07T04:46:33;99739.69;;;3.65;91.49
75775;BME280;64505;51.458;7.556;2022-12-07T04:48:35;99734.94;;;3.69;91.13
75775;BME280;64505;51.458;7.556;2022-12-07T04:50:36;99734.28;;;3.67;91.19
75775;BME280;64505;51.458;7.556;2022-12-07T04:52:46;99736.88;;;3.67;91.45
75775;BME280;64505;51.458;7.556;2022-12-07T04:54:47;99743.09;;;3.66;91.33
75775;BME280;64505;51.458;7.556;2022-12-07T04:56:49;99737.69;;;3.67;90.85
75775;BME280;64505;51.458;7.556;2022-12-07T04:58:53;99728.06;;;3.68;91.56
75775;BME280;64505;51.458;7.556;2022-12-07T05:00:55;99728.78;;;3.62;91.44
75775;BME280;64505;51.458;7.556;2022-12-07T05:02:56;99732.38;;;3.61;92.01
75775;BME280;64505;51.458;7.556;2022-12-07T05:04:58;99717.50;;;3.61;91.60
75775;BME280;64505;51.458;7.556;2022-12-07T05:06:59;99724.25;;;3.56;91.76
75775;BME280;64505;51.458;7.556;2022-12-07T05:09:01;99721.47;;;3.57;91.93
75775;BME280;64505;51.458;7.556;2022-12-07T05:11:04;99727.22;;;3.53;92.19
75775;BME280;64505;51.458;7.556;2022-12-07T05:13:05;99731.69;;;3.44;91.50
75775;BME280;64505;51.458;7.556;2022-12-07T05:15:07;99730.00;;;3.51;91.79
75775;BME280;64505;51.458;7.556;2022-12-07T05:17:09;99727.66;;;3.56;91.67
75775;BME280;64505;51.458;7.556;2022-12-07T05:19:12;99726.50;;;3.59;91.58
75775;BME280;64505;51.458;7.556;2022-12-07T05:21:14;99726.41;;;3.52;92.11
75775;BME280;64505;51.458;7.556;2022-12-07T05:23:15;99731.34;;;3.47;91.95
75775;BME280;64505;51.458;7.556;2022-12-07T05:25:17;99726.41;;;3.52;91.98
75775;BME280;64505;51.458;7.556;2022-12-07T05:27:18;99729.81;;;3.53;91.80
75775;BME280;64505;51.458;7.556;2022-12-07T05:29:19;99728.66;;;3.55;92.24
75775;BME280;64505;51.458;7.556;2022-12-07T05:31:22;99732.44;;;3.53;91.96
75775;BME280;64505;51.458;7.556;2022-12-07T05:33:24;99734.06;;;3.54;91.84
75775;BME280;64505;51.458;7.556;2022-12-07T05:35:25;99727.06;;;3.54;91.99
75775;BME280;64505;51.458;7.556;2022-12-07T05:37:27;99725.13;;;3.48;91.74
75775;BME280;64505;51.458;7.556;2022-12-07T05:39:28;99726.28;;;3.45;91.84
75775;BME280;64505;51.458;7.556;2022-12-07T05:41:30;99722.88;;;3.45;91.71
75775;BME280;64505;51.458;7.556;2022-12-07T05:43:50;99714.91;;;3.38;92.09
75775;BME280;64505;51.458;7.556;2022-12-07T05:45:51;99714.75;;;3.40;91.77
75775;BME280;64505;51.458;7.556;2022-12-07T05:47:53;99714.91;;;3.38;91.98
75775;BME280;64505;51.458;7.556;2022-12-07T05:49:54;99711.50;;;3.38;92.03
75775;BME280;64505;51.458;7.556;2022-12-07T05:51:55;99712.00;;;3.33;92.31
75775;BME280;64505;51.458;7.556;2022-12-07T05:53:57;99721.94;;;3.38;91.74
75775;BME280;64505;51.458;7.556;2022-12-07T05:55:58;99724.19;;;3.41;91.82
75775;BME280;64505;51.458;7.556;2022-12-07T05:58:00;99714.91;;;3.38;91.41
75775;BME280;64505;51.458;7.556;2022-12-07T06:00:20;99716.34;;;3.41;91.71
75775;BME280;64505;51.458;7.556;2022-12-07T06:02:21;99722.25;;;3.43;91.68
75775;BME280;64505;51.458;7.556;2022-12-07T06:04:25;99714.75;;;3.40;91.58
75775;BME280;64505;51.458;7.556;2022-12-07T06:06:26;99718.81;;;3.42;91.71
75775;BME280;64505;51.458;7.556;2022-12-07T06:08:28;99718.81;;;3.42;91.82
75775;BME280;64505;51.458;7.556;2022-12-07T06:10:30;99713.94;;;3.39;91.48
75775;BME280;64505;51.458;7.556;2022-12-07T06:12:31;99711.31;;;3.39;91.06
75775;BME280;64505;51.458;7.556;2022-12-07T06:14:35;99715.09;;;3.37;91.74
75775;BME280;64505;51.458;7.556;2022-12-07T06:16:37;99712.47;;;3.37;91.94
75775;BME280;64505;51.458;7.556;2022-12-07T06:18:38;99715.09;;;3.37;91.54
75775;BME280;64505;51.458;7.556;2022-12-07T06:20:40;99708.06;;;3.37;91.74
75775;BME280;64505;51.458;7.556;2022-12-07T06:22:41;99708.25;;;3.36;91.96
75775;BME280;64505;51.458;7.556;2022-12-07T06:24:43;99712.31;;;3.38;91.77
75775;BME280;64505;51.458;7.556;2022-12-07T06:26:45;99715.91;;;3.37;91.54
75775;BME280;64505;51.458;7.556;2022-12-07T06:28:47;99720.97;;;3.39;91.36
75775;BME280;64505;51.458;7.556;2022-12-07T06:30:57;99724.72;;;3.36;91.34
75775;BME280;64505;51.458;7.556;2022-12-07T06:32:58;99722.47;;;3.33;91.41
75775;BME280;64505;51.458;7.556;2022-12-07T06:35:00;99723.75;;;3.37;91.63
75775;BME280;64505;51.458;7.556;2022-12-07T06:37:02;99729.78;;;3.38;91.84
75775;BME280;64505;51.458;7.556;2022-12-07T06:39:04;99723.38;;;3.40;91.73
75775;BME280;64505;51.458;7.556;2022-12-07T06:41:06;99724.72;;;3.36;91.67
75775;BME280;64505;51.458;7.556;2022-12-07T06:43:07;99726.56;;;3.36;91.67
75775;BME280;64505;51.458;7.556;2022-12-07T06:45:09;99730.09;;;3.43;91.94
75775;BME280;64505;51.458;7.556;2022-12-07T06:47:11;99727.47;;;3.43;91.55
75775;BME280;64505;51.458;7.556;2022-12-07T06:49:32;99730.44;;;3.40;91.60
75775;BME280;64505;51.458;7.556;2022-12-07T06:51:34;99731.22;;;3.40;91.24
75775;BME280;64505;51.458;7.556;2022-12-07T06:53:37;99737.47;;;3.39;91.03
75775;BME280;64505;51.458;7.556;2022-12-07T06:55:39;99729.94;;;3.36;91.17
75775;BME280;64505;51.458;7.556;2022-12-07T06:57:41;99733.06;;;3.40;91.26
75775;BME280;64505;51.458;7.556;2022-12-07T06:59:42;99728.81;;;3.39;91.67
75775;BME280;64505;51.458;7.556;2022-12-07T07:01:43;99731.22;;;3.40;91.28
75775;BME280;64505;51.458;7.556;2022-12-07T07:03:47;99736.81;;;3.37;90.82
75775;BME280;64505;51.458;7.556;2022-12-07T07:05:48;99737.63;;;3.38;91.20
75775;BME280;64505;51.458;7.556;2022-12-07T07:07:50;99738.59;;;3.37;90.92
75775;BME280;64505;51.458;7.556;2022-12-07T07:10:11;99732.28;;;3.31;91.28
75775;BME280;64505;51.458;7.556;2022-12-07T07:12:16;99735.63;;;3.25;91.41
75775;BME280;64505;51.458;7.556;2022-12-07T07:14:17;99737.56;;;3.23;91.61
75775;BME280;64505;51.458;7.556;2022-12-07T07:16:20;99737.75;;;3.22;91.81
75775;BME280;64505;51.458;7.556;2022-12-07T07:18:22;99738.91;;;3.19;91.24
75775;BME280;64505;51.458;7.556;2022-12-07T07:20:23;99731.88;;;3.20;91.21
75775;BME280;64505;51.458;7.556;2022-12-07T07:22:25;99738.38;;;3.24;91.62
75775;BME280;64505;51.458;7.556;2022-12-07T07:24:26;99746.22;;;3.24;90.94
75775;BME280;64505;51.458;7.556;2022-12-07T07:26:28;99738.22;;;3.25;91.55
75775;BME280;64505;51.458;7.556;2022-12-07T07:28:29;99745.06;;;3.26;91.34
75775;BME280;64505;51.458;7.556;2022-12-07T07:30:32;99741.00;;;3.24;90.67
75775;BME280;64505;51.458;7.556;2022-12-07T07:32:34;99747.66;;;3.26;91.26
75775;BME280;64505;51.458;7.556;2022-12-07T07:34:36;99746.22;;;3.24;91.19
75775;BME280;64505;51.458;7.556;2022-12-07T07:36:39;99743.00;;;3.22;91.22
75775;BME280;64505;51.458;7.556;2022-12-07T07:38:41;99749.81;;;3.23;91.70
75775;BME280;64505;51.458;7.556;2022-12-07T07:40:45;99739.09;;;3.18;92.06
75775;BME280;64505;51.458;7.556;2022-12-07T07:42:48;99748.53;;;3.19;91.70
75775;BME280;64505;51.458;7.556;2022-12-07T07:44:50;99747.25;;;3.15;91.56
75775;BME280;64505;51.458;7.556;2022-12-07T07:46:54;99745.69;;;3.06;91.70
75775;BME280;64505;51.458;7.556;2022-12-07T07:48:59;99737.25;;;3.04;92.19
75775;BME280;64505;51.458;7.556;2022-12-07T07:51:05;99743.56;;;3.09;91.77
75775;BME280;64505;51.458;7.556;2022-12-07T07:53:07;99744.72;;;3.07;91.51
75775;BME280;64505;51.458;7.556;2022-12-07T07:55:10;99743.09;;;3.06;91.88
75775;BME280;64505;51.458;7.556;2022-12-07T07:57:13;99746.16;;;3.09;91.97
75775;BME280;64505;51.458;7.556;2022-12-07T07:59:15;99746.31;;;3.08;91.75
75775;BME280;64505;51.458;7.556;2022-12-07T08:01:17;99749.75;;;3.08;91.51
75775;BME280;64505;51.458;7.556;2022-12-07T08:03:21;99748.94;;;3.08;91.63
75775;BME280;64505;51.458;7.556;2022-12-07T08:05:22;99750.41;;;3.10;91.92
75775;BME280;64505;51.458;7.556;2022-12-07T08:07:24;99750.69;;;3.15;91.37
75775;BME280;64505;51.458;7.556;2022-12-07T08:09:26;99757.38;;;3.18;91.18
75775;BME280;64505;51.458;7.556;2022-12-07T08:11:28;99756.22;;;3.20;91.50
75775;BME280;64505;51.458;7.556;2022-12-07T08:13:30;99752.47;;;3.15;91.13
75775;BME280;64505;51.458;7.556;2022-12-07T08:15:32;99758.53;;;3.15;91.24
75775;BME280;64505;51.458;7.556;2022-12-07T08:17:34;99762.44;;;3.19;91.42
75775;BME280;64505;51.458;7.556;2022-12-07T08:19:36;99758.47;;;3.23;91.56
75775;BME280;64505;51.458;7.556;2022-12-07T08:21:38;99753.59;;;3.20;91.11
75775;BME280;64505;51.458;7.556;2022-12-07T08:23:41;99756.06;;;3.22;91.11
75775;BME280;64505;51.458;7.556;2022-12-07T08:25:45;99763.00;;;3.29;90.67
75775;BME280;64505;51.458;7.556;2022-12-07T08:27:49;99751.22;;;3.33;91.10
75775;BME280;64505;51.458;7.556;2022-12-07T08:29:50;99761.16;;;3.38;90.84
75775;BME280;64505;51.458;7.556;2022-12-07T08:31:52;99750.53;;;3.39;90.45
75775;BME280;64505;51.458;7.556;2022-12-07T08:33:54;99764.69;;;3.45;90.61
75775;BME280;64505;51.458;7.556;2022-12-07T08:36:06;99761.72;;;3.48;90.30
75775;BME280;64505;51.458;7.556;2022-12-07T08:38:08;99772.53;;;3.45;91.02
75775;BME280;64505;51.458;7.556;2022-12-07T08:40:11;99765.22;;;3.40;91.18
75775;BME280;64505;51.458;7.556;2022-12-07T08:42:16;99763.41;;;3.41;90.55
75775;BME280;64505;51.458;7.556;2022-12-07T08:44:17;99760.63;;;3.42;90.72
75775;BME280;64505;51.458;7.556;2022-12-07T08:46:40;99769.09;;;3.44;90.63
75775;BME280;64505;51.458;7.556;2022-12-07T08:48:47;99762.88;;;3.45;90.36
75775;BME280;64505;51.458;7.556;2022-12-07T08:50:50;99765.16;;;3.48;90.38
75775;BME280;64505;51.458;7.556;2022-12-07T08:52:54;99761.91;;;3.46;90.05
75775;BME280;64505;51.458;7.556;2022-12-07T08:54:58;99767.19;;;3.61;89.74
75775;BME280;64505;51.458;7.556;2022-12-07T08:57:01;99764.56;;;3.61;89.44
75775;BME280;64505;51.458;7.556;2022-12-07T08:59:04;99767.28;;;3.68;89.68
75775;BME280;64505;51.458;7.556;2022-12-07T09:01:06;99767.09;;;3.69;89.74
75775;BME280;64505;51.458;7.556;2022-12-07T09:03:07;99767.09;;;3.69;89.81
75775;BME280;64505;51.458;7.556;2022-12-07T09:05:09;99765.13;;;3.71;89.31
75775;BME280;64505;51.458;7.556;2022-12-07T09:07:17;99767.22;;;3.76;89.93
75775;BME280;64505;51.458;7.556;2022-12-07T09:09:18;99766.22;;;3.77;89.38
75775;BME280;64505;51.458;7.556;2022-12-07T09:11:20;99764.19;;;3.87;89.54
75775;BME280;64505;51.458;7.556;2022-12-07T09:13:28;99760.91;;;3.85;88.80
75775;BME280;64505;51.458;7.556;2022-12-07T09:15:30;99759.03;;;3.93;89.38
75775;BME280;64505;51.458;7.556;2022-12-07T09:17:33;99761.47;;;3.95;89.48
75775;BME280;64505;51.458;7.556;2022-12-07T09:19:34;99757.31;;;3.86;88.83
75775;BME280;64505;51.458;7.556;2022-12-07T09:21:36;99757.03;;;3.81;88.71
75775;BME280;64505;51.458;7.556;2022-12-07T09:23:37;99762.19;;;3.89;89.43
75775;BME280;64505;51.458;7.556;2022-12-07T09:25:39;99759.28;;;3.84;89.96
75775;BME280;64505;51.458;7.556;2022-12-07T09:27:41;99765.69;;;3.81;89.06
75775;BME280;64505;51.458;7.556;2022-12-07T09:29:42;99772.03;;;3.87;89.46
75775;BME280;64505;51.458;7.556;2022-12-07T09:31:44;99761.47;;;3.95;89.45
75775;BME280;64505;51.458;7.556;2022-12-07T09:33:45;99759.13;;;4.00;89.21
75775;BME280;64505;51.458;7.556;2022-12-07T09:35:49;99766.53;;;4.11;88.94
75775;BME280;64505;51.458;7.556;2022-12-07T09:37:50;99760.22;;;4.20;88.94
75775;BME280;64505;51.458;7.556;2022-12-07T09:39:52;99762.66;;;4.22;88.30
75775;BME280;64505;51.458;7.556;2022-12-07T09:41:53;99762.66;;;4.22;88.61
75775;BME280;64505;51.458;7.556;2022-12-07T09:44:07;99765.28;;;4.22;87.89
75775;BME280;64505;51.458;7.556;2022-12-07T09:46:15;99756.59;;;4.21;88.53
75775;BME280;64505;51.458;7.556;2022-12-07T09:48:37;99755.34;;;4.32;88.64
75775;BME280;64505;51.458;7.556;2022-12-07T09:50:40;99764.38;;;4.15;88.00
75775;BME280;64505;51.458;7.556;2022-12-07T09:52:43;99755.88;;;4.13;88.30
75775;BME280;64505;51.458;7.556;2022-12-07T09:54:48;99753.53;;;4.18;88.75
75775;BME280;64505;51.458;7.556;2022-12-07T09:56:51;99751.47;;;4.28;88.42
75775;BME280;64505;51.458;7.556;2022-12-07T09:58:58;99753.00;;;4.22;88.24
75775;BME280;64505;51.458;7.556;2022-12-07T10:03:11;99753.53;;;4.18;87.93
75775;BME280;64505;51.458;7.556;2022-12-07T10:05:16;99745.22;;;4.43;87.80
75775;BME280;64505;51.458;7.556;2022-12-07T10:07:25;99751.66;;;4.41;87.79
75775;BME280;64505;51.458;7.556;2022-12-07T10:09:26;99753.63;;;4.24;87.95
75775;BME280;64505;51.458;7.556;2022-12-07T10:11:30;99747.41;;;4.25;87.72
75775;BME280;64505;51.458;7.556;2022-12-07T10:13:39;99749.81;;;4.27;87.97
75775;BME280;64505;51.458;7.556;2022-12-07T10:17:51;99737.34;;;4.58;87.20
75775;BME280;64505;51.458;7.556;2022-12-07T10:20:18;99733.19;;;4.64;86.89
75775;BME280;64505;51.458;7.556;2022-12-07T10:22:20;99736.13;;;4.75;86.79
75775;BME280;64505;51.458;7.556;2022-12-07T10:24:22;99734.06;;;4.71;86.78
75775;BME280;64505;51.458;7.556;2022-12-07T10:26:29;99734.44;;;4.68;87.29
75775;BME280;64505;51.458;7.556;2022-12-07T10:28:35;99729.13;;;4.61;87.31
75775;BME280;64505;51.458;7.556;2022-12-07T10:30:55;99735.31;;;4.75;87.48
75775;BME280;64505;51.458;7.556;2022-12-07T10:32:58;99739.31;;;4.71;86.28
75775;BME280;64505;51.458;7.556;2022-12-07T10:37:20;99736.44;;;4.66;86.84
75775;BME280;64505;51.458;7.556;2022-12-07T10:39:23;99734.38;;;4.61;87.34
75775;BME280;64505;51.458;7.556;2022-12-07T10:41:24;99721.38;;;4.53;87.07
75775;BME280;64505;51.458;7.556;2022-12-07T10:43:26;99723.53;;;4.50;86.55
75775;BME280;64505;51.458;7.556;2022-12-07T10:45:27;99725.66;;;4.39;86.39
75775;BME280;64505;51.458;7.556;2022-12-07T10:52:39;99717.66;;;4.62;86.40
75775;BME280;64505;51.458;7.556;2022-12-07T10:55:04;99704.66;;;4.69;86.12
75775;BME280;64505;51.458;7.556;2022-12-07T11:02:00;99714.69;;;4.65;84.83
75775;BME280;64505;51.458;7.556;2022-12-07T11:07:22;99692.75;;;4.87;85.80
75775;BME280;64505;51.458;7.556;2022-12-07T11:12:26;99697.50;;;4.99;85.53
75775;BME280;64505;51.458;7.556;2022-12-07T11:16:55;99693.25;;;4.97;85.34
75775;BME280;64505;51.458;7.556;2022-12-07T11:22:38;99682.78;;;4.97;84.57
75775;BME280;64505;51.458;7.556;2022-12-07T11:24:28;99681.41;;;5.02;85.29
75775;BME280;64505;51.458;7.556;2022-12-07T11:29:09;99691.63;;;4.96;84.93
75775;BME280;64505;51.458;7.556;2022-12-07T11:34:07;99681.19;;;5.03;84.62
75775;BME280;64505;51.458;7.556;2022-12-07T11:36:31;99675.28;;;5.16;84.68
75775;BME280;64505;51.458;7.556;2022-12-07T11:38:53;99670.91;;;5.23;85.03
75775;BME280;64505;51.458;7.556;2022-12-07T11:41:01;99664.84;;;5.22;84.41
75775;BME280;64505;51.458;7.556;2022-12-07T11:46:12;99659.84;;;5.27;84.31
75775;BME280;64505;51.458;7.556;2022-12-07T11:50:57;99659.03;;;5.27;84.32
75775;BME280;64505;51.458;7.556;2022-12-07T11:58:03;99662.00;;;5.17;84.42
75775;BME280;64505;51.458;7.556;2022-12-07T12:00:31;99655.25;;;5.08;84.17
75775;BME280;64505;51.458;7.556;2022-12-07T12:04:55;99659.44;;;5.03;84.46
75775;BME280;64505;51.458;7.556;2022-12-07T12:06:59;99659.44;;;5.03;84.22
75775;BME280;64505;51.458;7.556;2022-12-07T12:09:34;99647.28;;;4.95;83.74
75775;BME280;64505;51.458;7.556;2022-12-07T12:12:21;99652.56;;;5.02;84.62
75775;BME280;64505;51.458;7.556;2022-12-07T12:21:36;99655.94;;;5.17;84.19
75775;BME280;64505;51.458;7.556;2022-12-07T12:23:42;99648.91;;;5.17;84.10
75775;BME280;64505;51.458;7.556;2022-12-07T12:25:48;99649.13;;;5.22;84.20
75775;BME280;64505;51.458;7.556;2022-12-07T12:27:52;99646.84;;;5.13;83.42
75775;BME280;64505;51.458;7.556;2022-12-07T12:29:59;99647.31;;;5.23;83.66
75775;BME280;64505;51.458;7.556;2022-12-07T12:32:49;99642.13;;;5.29;83.73
75775;BME280;64505;51.458;7.556;2022-12-07T12:39:35;99637.25;;;5.26;82.69